Atwater, Illinois
Current Conditions -  °F | °C
As of 6:15 AM on Friday 28 Nov 2014 (Local Time) from K3LF Reporting Station
Clear Clear  
Wind Chill:   Ceiling: Unl
Heat Index: 19°   Visibility: 10mi
Dew Point: 16°   Wind: 13mph
Humidity: 85%   Direction: 130°SE
Pressure: 30.28"   Gusts: NA
Location:  39.33°N, 89.72°W
Report Text: K3LF 281215Z AUTO 13011KT 10SM CLR M07/M09 A3028 RMK AO2 T10701091
Loading
Personal Weather Stations






























Interactive Weather Map New forecast layout! Learn more

10-Day Weather Forecast

Advertisements
Track Severe Weather on mobile